sensor_id;sensor_type;location;lat;lon;timestamp;temperature;humidity
1377;DHT22;682;52.502;13.488;2023-11-19T00:00:06;5.10;1.00
1377;DHT22;682;52.502;13.488;2023-11-19T00:02:38;5.10;1.00
1377;DHT22;682;52.502;13.488;2023-11-19T00:05:06;5.10;1.00
1377;DHT22;682;52.502;13.488;2023-11-19T00:07:35;5.10;1.00
1377;DHT22;682;52.502;13.488;2023-11-19T00:10:04;5.10;1.00
1377;DHT22;682;52.502;13.488;2023-11-19T00:12:32;5.00;1.00
1377;DHT22;682;52.502;13.488;2023-11-19T00:14:59;5.10;1.00
1377;DHT22;682;52.502;13.488;2023-11-19T00:17:27;5.10;1.00
1377;DHT22;682;52.502;13.488;2023-11-19T00:19:55;5.10;1.00
1377;DHT22;682;52.502;13.488;2023-11-19T00:22:22;5.10;1.00
1377;DHT22;682;52.502;13.488;2023-11-19T00:24:51;5.00;1.00
1377;DHT22;682;52.502;13.488;2023-11-19T00:27:21;5.10;1.00
1377;DHT22;682;52.502;13.488;2023-11-19T00:29:48;5.10;1.00
1377;DHT22;682;52.502;13.488;2023-11-19T00:32:17;5.10;1.00
1377;DHT22;682;52.502;13.488;2023-11-19T00:34:44;5.10;1.00
1377;DHT22;682;52.502;13.488;2023-11-19T00:37:14;5.10;1.00
1377;DHT22;682;52.502;13.488;2023-11-19T00:39:42;5.00;1.00
1377;DHT22;682;52.502;13.488;2023-11-19T00:42:09;5.00;1.00
1377;DHT22;682;52.502;13.488;2023-11-19T00:44:40;5.00;1.00
1377;DHT22;682;52.502;13.488;2023-11-19T00:47:07;5.10;1.00
1377;DHT22;682;52.502;13.488;2023-11-19T00:49:34;5.10;1.00
1377;DHT22;682;52.502;13.488;2023-11-19T00:52:01;5.00;1.00
1377;DHT22;682;52.502;13.488;2023-11-19T00:54:31;5.10;1.00
1377;DHT22;682;52.502;13.488;2023-11-19T00:56:58;5.00;1.00
1377;DHT22;682;52.502;13.488;2023-11-19T00:59:27;5.10;1.00
1377;DHT22;682;52.502;13.488;2023-11-19T01:01:55;5.00;1.00
1377;DHT22;682;52.502;13.488;2023-11-19T01:04:22;5.00;1.00
1377;DHT22;682;52.502;13.488;2023-11-19T01:06:50;5.00;1.00
1377;DHT22;682;52.502;13.488;2023-11-19T01:09:17;5.10;1.00
1377;DHT22;682;52.502;13.488;2023-11-19T01:11:45;5.10;1.00
1377;DHT22;682;52.502;13.488;2023-11-19T01:14:12;5.10;1.00
1377;DHT22;682;52.502;13.488;2023-11-19T01:16:39;5.10;1.00
1377;DHT22;682;52.502;13.488;2023-11-19T01:19:06;5.10;1.00
1377;DHT22;682;52.502;13.488;2023-11-19T01:21:33;5.10;1.00
1377;DHT22;682;52.502;13.488;2023-11-19T01:24:00;5.10;1.00
1377;DHT22;682;52.502;13.488;2023-11-19T01:26:29;5.10;1.00
1377;DHT22;682;52.502;13.488;2023-11-19T01:28:57;5.20;1.00
1377;DHT22;682;52.502;13.488;2023-11-19T01:31:25;5.20;1.00
1377;DHT22;682;52.502;13.488;2023-11-19T01:33:52;5.30;1.00
1377;DHT22;682;52.502;13.488;2023-11-19T01:36:19;5.30;1.00
1377;DHT22;682;52.502;13.488;2023-11-19T01:38:46;5.30;1.00
1377;DHT22;682;52.502;13.488;2023-11-19T01:41:13;5.30;1.00
1377;DHT22;682;52.502;13.488;2023-11-19T01:43:40;5.30;1.00
1377;DHT22;682;52.502;13.488;2023-11-19T01:46:09;5.30;1.00
1377;DHT22;682;52.502;13.488;2023-11-19T01:48:38;5.30;1.00
1377;DHT22;682;52.502;13.488;2023-11-19T01:51:07;5.40;1.00
1377;DHT22;682;52.502;13.488;2023-11-19T01:53:35;5.40;1.00
1377;DHT22;682;52.502;13.488;2023-11-19T01:56:04;5.30;1.00
1377;DHT22;682;52.502;13.488;2023-11-19T01:58:31;5.30;1.00
1377;DHT22;682;52.502;13.488;2023-11-19T02:00:58;5.30;1.00
1377;DHT22;682;52.502;13.488;2023-11-19T02:03:26;5.30;1.00
1377;DHT22;682;52.502;13.488;2023-11-19T02:05:54;5.30;1.00
1377;DHT22;682;52.502;13.488;2023-11-19T02:08:22;5.30;1.00
1377;DHT22;682;52.502;13.488;2023-11-19T02:10:49;5.30;1.00
1377;DHT22;682;52.502;13.488;2023-11-19T02:13:17;5.30;1.00
1377;DHT22;682;52.502;13.488;2023-11-19T02:15:44;5.30;1.00
1377;DHT22;682;52.502;13.488;2023-11-19T02:18:21;5.20;1.00
1377;DHT22;682;52.502;13.488;2023-11-19T02:20:50;5.20;1.00
1377;DHT22;682;52.502;13.488;2023-11-19T02:23:18;5.10;1.00
1377;DHT22;682;52.502;13.488;2023-11-19T02:25:50;5.10;1.00
1377;DHT22;682;52.502;13.488;2023-11-19T02:28:23;5.10;1.00
1377;DHT22;682;52.502;13.488;2023-11-19T02:30:50;5.20;1.00
1377;DHT22;682;52.502;13.488;2023-11-19T02:33:17;5.10;1.00
1377;DHT22;682;52.502;13.488;2023-11-19T02:35:44;5.10;1.00
1377;DHT22;682;52.502;13.488;2023-11-19T02:38:11;5.10;1.00
1377;DHT22;682;52.502;13.488;2023-11-19T02:40:39;5.10;1.00
1377;DHT22;682;52.502;13.488;2023-11-19T02:43:06;5.10;1.00
1377;DHT22;682;52.502;13.488;2023-11-19T02:45:36;5.20;1.00
1377;DHT22;682;52.502;13.488;2023-11-19T02:48:04;5.20;1.00
1377;DHT22;682;52.502;13.488;2023-11-19T02:50:33;5.20;1.00
1377;DHT22;682;52.502;13.488;2023-11-19T02:53:00;5.20;1.00
1377;DHT22;682;52.502;13.488;2023-11-19T02:55:27;5.20;1.00
1377;DHT22;682;52.502;13.488;2023-11-19T02:57:56;5.30;1.00
1377;DHT22;682;52.502;13.488;2023-11-19T03:00:25;5.30;1.00
1377;DHT22;682;52.502;13.488;2023-11-19T03:03:01;5.30;1.00
1377;DHT22;682;52.502;13.488;2023-11-19T03:05:45;5.30;1.00
1377;DHT22;682;52.502;13.488;2023-11-19T03:08:14;5.30;1.00
1377;DHT22;682;52.502;13.488;2023-11-19T03:10:41;5.40;1.00
1377;DHT22;682;52.502;13.488;2023-11-19T03:13:12;5.40;1.00
1377;DHT22;682;52.502;13.488;2023-11-19T03:15:40;5.50;1.00
1377;DHT22;682;52.502;13.488;2023-11-19T03:18:08;5.50;1.00
1377;DHT22;682;52.502;13.488;2023-11-19T03:20:35;5.50;1.00
1377;DHT22;682;52.502;13.488;2023-11-19T03:23:02;5.60;1.00
1377;DHT22;682;52.502;13.488;2023-11-19T03:25:29;5.70;1.00
1377;DHT22;682;52.502;13.488;2023-11-19T03:27:59;5.70;1.00
1377;DHT22;682;52.502;13.488;2023-11-19T03:30:26;5.70;1.00
1377;DHT22;682;52.502;13.488;2023-11-19T03:32:54;5.70;1.00
1377;DHT22;682;52.502;13.488;2023-11-19T03:35:23;5.80;1.00
1377;DHT22;682;52.502;13.488;2023-11-19T03:37:50;5.70;1.00
1377;DHT22;682;52.502;13.488;2023-11-19T03:40:17;5.70;1.00
1377;DHT22;682;52.502;13.488;2023-11-19T03:42:45;5.80;1.00
1377;DHT22;682;52.502;13.488;2023-11-19T03:45:12;5.70;1.00
1377;DHT22;682;52.502;13.488;2023-11-19T03:47:40;5.50;1.00
1377;DHT22;682;52.502;13.488;2023-11-19T03:50:07;5.40;1.00
1377;DHT22;682;52.502;13.488;2023-11-19T03:52:36;5.30;1.00
1377;DHT22;682;52.502;13.488;2023-11-19T03:55:04;5.20;1.00
1377;DHT22;682;52.502;13.488;2023-11-19T03:57:34;5.10;1.00
1377;DHT22;682;52.502;13.488;2023-11-19T04:00:04;5.00;1.00
1377;DHT22;682;52.502;13.488;2023-11-19T04:02:34;4.90;1.00
1377;DHT22;682;52.502;13.488;2023-11-19T04:05:01;4.90;1.00
1377;DHT22;682;52.502;13.488;2023-11-19T04:07:29;4.80;1.00
1377;DHT22;682;52.502;13.488;2023-11-19T04:09:58;4.80;1.00
1377;DHT22;682;52.502;13.488;2023-11-19T04:12:25;4.70;1.00
1377;DHT22;682;52.502;13.488;2023-11-19T04:14:52;4.70;1.00
1377;DHT22;682;52.502;13.488;2023-11-19T04:17:19;4.70;1.00
1377;DHT22;682;52.502;13.488;2023-11-19T04:19:47;4.70;1.00
1377;DHT22;682;52.502;13.488;2023-11-19T04:22:14;4.60;1.00
1377;DHT22;682;52.502;13.488;2023-11-19T04:24:41;4.70;1.00
1377;DHT22;682;52.502;13.488;2023-11-19T04:27:11;4.70;1.00
1377;DHT22;682;52.502;13.488;2023-11-19T04:29:38;4.70;1.00
1377;DHT22;682;52.502;13.488;2023-11-19T04:32:05;4.70;1.00
1377;DHT22;682;52.502;13.488;2023-11-19T04:34:33;4.70;1.00
1377;DHT22;682;52.502;13.488;2023-11-19T04:37:00;4.70;1.00
1377;DHT22;682;52.502;13.488;2023-11-19T04:39:31;4.70;1.00
1377;DHT22;682;52.502;13.488;2023-11-19T04:41:58;4.60;1.00
1377;DHT22;682;52.502;13.488;2023-11-19T04:44:26;4.60;1.00
1377;DHT22;682;52.502;13.488;2023-11-19T04:46:55;4.70;1.00
1377;DHT22;682;52.502;13.488;2023-11-19T04:49:22;4.80;1.00
1377;DHT22;682;52.502;13.488;2023-11-19T04:51:48;4.70;1.00
1377;DHT22;682;52.502;13.488;2023-11-19T04:54:16;4.80;1.00
1377;DHT22;682;52.502;13.488;2023-11-19T04:56:45;4.80;1.00
1377;DHT22;682;52.502;13.488;2023-11-19T04:59:13;4.80;1.00
1377;DHT22;682;52.502;13.488;2023-11-19T05:01:41;4.80;1.00
1377;DHT22;682;52.502;13.488;2023-11-19T05:04:08;4.80;1.00
1377;DHT22;682;52.502;13.488;2023-11-19T05:06:35;4.80;1.00
1377;DHT22;682;52.502;13.488;2023-11-19T05:09:03;4.70;1.00
1377;DHT22;682;52.502;13.488;2023-11-19T05:11:33;4.70;1.00
1377;DHT22;682;52.502;13.488;2023-11-19T05:14:00;4.70;1.00
1377;DHT22;682;52.502;13.488;2023-11-19T05:16:27;4.70;1.00
1377;DHT22;682;52.502;13.488;2023-11-19T05:18:55;4.70;1.00
1377;DHT22;682;52.502;13.488;2023-11-19T05:21:22;4.70;1.00
1377;DHT22;682;52.502;13.488;2023-11-19T05:23:49;4.70;1.00
1377;DHT22;682;52.502;13.488;2023-11-19T05:26:19;4.60;1.00
1377;DHT22;682;52.502;13.488;2023-11-19T05:28:47;4.60;1.00
1377;DHT22;682;52.502;13.488;2023-11-19T05:31:17;4.60;1.00
1377;DHT22;682;52.502;13.488;2023-11-19T05:33:44;4.70;1.00
1377;DHT22;682;52.502;13.488;2023-11-19T05:36:13;4.60;1.00
1377;DHT22;682;52.502;13.488;2023-11-19T05:38:40;4.70;1.00
1377;DHT22;682;52.502;13.488;2023-11-19T05:41:08;4.60;1.00
1377;DHT22;682;52.502;13.488;2023-11-19T05:43:36;4.60;1.00
1377;DHT22;682;52.502;13.488;2023-11-19T05:46:03;4.70;1.00
1377;DHT22;682;52.502;13.488;2023-11-19T05:48:30;4.70;1.00
1377;DHT22;682;52.502;13.488;2023-11-19T05:50:57;4.70;1.00
1377;DHT22;682;52.502;13.488;2023-11-19T05:53:25;4.70;1.00
1377;DHT22;682;52.502;13.488;2023-11-19T05:55:52;4.70;1.00
1377;DHT22;682;52.502;13.488;2023-11-19T05:58:24;4.70;1.00
1377;DHT22;682;52.502;13.488;2023-11-19T06:00:54;4.80;1.00
1377;DHT22;682;52.502;13.488;2023-11-19T06:03:21;4.80;1.00
1377;DHT22;682;52.502;13.488;2023-11-19T06:05:48;4.80;1.00
1377;DHT22;682;52.502;13.488;2023-11-19T06:08:15;4.80;1.00
1377;DHT22;682;52.502;13.488;2023-11-19T06:10:44;4.80;1.00
1377;DHT22;682;52.502;13.488;2023-11-19T06:13:12;4.90;1.00
1377;DHT22;682;52.502;13.488;2023-11-19T06:15:40;4.90;1.00
1377;DHT22;682;52.502;13.488;2023-11-19T06:18:07;4.80;1.00
1377;DHT22;682;52.502;13.488;2023-11-19T06:20:35;4.90;1.00
1377;DHT22;682;52.502;13.488;2023-11-19T06:23:02;4.90;1.00
1377;DHT22;682;52.502;13.488;2023-11-19T06:25:29;4.90;1.00
1377;DHT22;682;52.502;13.488;2023-11-19T06:27:58;4.90;1.00
1377;DHT22;682;52.502;13.488;2023-11-19T06:30:25;5.00;1.00
1377;DHT22;682;52.502;13.488;2023-11-19T06:32:53;5.00;1.00
1377;DHT22;682;52.502;13.488;2023-11-19T06:35:23;5.00;1.00
1377;DHT22;682;52.502;13.488;2023-11-19T06:37:50;5.00;1.00
1377;DHT22;682;52.502;13.488;2023-11-19T06:40:17;5.00;1.00
1377;DHT22;682;52.502;13.488;2023-11-19T06:42:44;5.00;1.00
1377;DHT22;682;52.502;13.488;2023-11-19T06:45:14;5.00;1.00
1377;DHT22;682;52.502;13.488;2023-11-19T06:47:41;5.10;1.00
1377;DHT22;682;52.502;13.488;2023-11-19T06:50:08;5.10;1.00
1377;DHT22;682;52.502;13.488;2023-11-19T06:52:35;5.10;1.00
1377;DHT22;682;52.502;13.488;2023-11-19T06:55:04;5.10;1.00
1377;DHT22;682;52.502;13.488;2023-11-19T06:57:32;5.00;1.00
1377;DHT22;682;52.502;13.488;2023-11-19T06:59:59;5.10;1.00
1377;DHT22;682;52.502;13.488;2023-11-19T07:02:27;5.10;1.00
1377;DHT22;682;52.502;13.488;2023-11-19T07:04:54;5.10;1.00
1377;DHT22;682;52.502;13.488;2023-11-19T07:07:24;5.20;1.00
1377;DHT22;682;52.502;13.488;2023-11-19T07:09:52;5.40;1.00
1377;DHT22;682;52.502;13.488;2023-11-19T07:12:18;5.50;1.00
1377;DHT22;682;52.502;13.488;2023-11-19T07:14:45;5.50;1.00
1377;DHT22;682;52.502;13.488;2023-11-19T07:17:13;5.50;1.00
1377;DHT22;682;52.502;13.488;2023-11-19T07:19:42;5.40;1.00
1377;DHT22;682;52.502;13.488;2023-11-19T07:22:09;5.40;1.00
1377;DHT22;682;52.502;13.488;2023-11-19T07:24:39;5.40;1.00
1377;DHT22;682;52.502;13.488;2023-11-19T07:27:06;5.40;1.00
1377;DHT22;682;52.502;13.488;2023-11-19T07:29:34;5.50;1.00
1377;DHT22;682;52.502;13.488;2023-11-19T07:32:01;5.50;1.00
1377;DHT22;682;52.502;13.488;2023-11-19T07:34:28;5.60;1.00
1377;DHT22;682;52.502;13.488;2023-11-19T07:36:57;5.60;1.00
1377;DHT22;682;52.502;13.488;2023-11-19T07:39:27;5.60;1.00
1377;DHT22;682;52.502;13.488;2023-11-19T07:41:55;5.60;1.00
1377;DHT22;682;52.502;13.488;2023-11-19T07:44:23;5.50;1.00
1377;DHT22;682;52.502;13.488;2023-11-19T07:46:50;5.50;1.00
1377;DHT22;682;52.502;13.488;2023-11-19T07:49:17;5.60;1.00
1377;DHT22;682;52.502;13.488;2023-11-19T07:51:44;5.60;1.00
1377;DHT22;682;52.502;13.488;2023-11-19T07:54:12;5.60;1.00
1377;DHT22;682;52.502;13.488;2023-11-19T07:56:40;5.60;1.00
1377;DHT22;682;52.502;13.488;2023-11-19T07:59:07;5.70;1.00
1377;DHT22;682;52.502;13.488;2023-11-19T08:01:33;5.80;1.00
1377;DHT22;682;52.502;13.488;2023-11-19T08:04:00;5.80;1.00
1377;DHT22;682;52.502;13.488;2023-11-19T08:06:28;5.80;1.00
1377;DHT22;682;52.502;13.488;2023-11-19T08:08:55;5.90;1.00
1377;DHT22;682;52.502;13.488;2023-11-19T08:11:25;5.90;1.00
1377;DHT22;682;52.502;13.488;2023-11-19T08:13:52;5.80;1.00
1377;DHT22;682;52.502;13.488;2023-11-19T08:16:19;5.80;1.00
1377;DHT22;682;52.502;13.488;2023-11-19T08:18:46;5.90;1.00
1377;DHT22;682;52.502;13.488;2023-11-19T08:21:13;6.00;1.00
1377;DHT22;682;52.502;13.488;2023-11-19T08:23:40;6.00;1.00
1377;DHT22;682;52.502;13.488;2023-11-19T08:26:07;6.10;1.00
1377;DHT22;682;52.502;13.488;2023-11-19T08:28:35;6.20;1.00
1377;DHT22;682;52.502;13.488;2023-11-19T08:31:02;6.20;1.00
1377;DHT22;682;52.502;13.488;2023-11-19T08:33:30;6.30;1.00
1377;DHT22;682;52.502;13.488;2023-11-19T08:35:57;6.30;1.00
1377;DHT22;682;52.502;13.488;2023-11-19T08:38:24;6.30;1.00
1377;DHT22;682;52.502;13.488;2023-11-19T08:40:51;6.30;1.00
1377;DHT22;682;52.502;13.488;2023-11-19T08:43:18;6.30;1.00
1377;DHT22;682;52.502;13.488;2023-11-19T08:45:46;6.50;1.00
1377;DHT22;682;52.502;13.488;2023-11-19T08:48:13;6.50;1.00
1377;DHT22;682;52.502;13.488;2023-11-19T08:50:40;6.50;1.00
1377;DHT22;682;52.502;13.488;2023-11-19T08:53:07;6.60;1.00
1377;DHT22;682;52.502;13.488;2023-11-19T08:55:34;6.70;1.00
1377;DHT22;682;52.502;13.488;2023-11-19T08:58:02;6.70;1.00
1377;DHT22;682;52.502;13.488;2023-11-19T09:00:29;6.80;1.00
1377;DHT22;682;52.502;13.488;2023-11-19T09:02:59;6.90;1.00
1377;DHT22;682;52.502;13.488;2023-11-19T09:05:26;6.90;1.00
1377;DHT22;682;52.502;13.488;2023-11-19T09:07:53;7.00;1.00
1377;DHT22;682;52.502;13.488;2023-11-19T09:10:21;7.10;1.00
1377;DHT22;682;52.502;13.488;2023-11-19T09:12:48;7.10;1.00
1377;DHT22;682;52.502;13.488;2023-11-19T09:15:15;7.20;1.00
1377;DHT22;682;52.502;13.488;2023-11-19T09:17:42;7.20;1.00
1377;DHT22;682;52.502;13.488;2023-11-19T09:20:11;7.30;1.00
1377;DHT22;682;52.502;13.488;2023-11-19T09:22:40;7.30;1.00
1377;DHT22;682;52.502;13.488;2023-11-19T09:25:08;7.40;1.00
1377;DHT22;682;52.502;13.488;2023-11-19T09:27:35;7.50;1.00
1377;DHT22;682;52.502;13.488;2023-11-19T09:30:02;7.60;1.00
1377;DHT22;682;52.502;13.488;2023-11-19T09:32:29;7.70;1.00
1377;DHT22;682;52.502;13.488;2023-11-19T09:34:56;7.90;1.00
1377;DHT22;682;52.502;13.488;2023-11-19T09:37:24;7.90;1.00
1377;DHT22;682;52.502;13.488;2023-11-19T09:39:51;8.00;1.00
1377;DHT22;682;52.502;13.488;2023-11-19T09:42:19;8.20;1.00
1377;DHT22;682;52.502;13.488;2023-11-19T09:44:49;8.30;1.00
1377;DHT22;682;52.502;13.488;2023-11-19T09:47:17;8.70;1.00
1377;DHT22;682;52.502;13.488;2023-11-19T09:49:45;9.00;1.00
1377;DHT22;682;52.502;13.488;2023-11-19T09:52:15;8.90;1.00
1377;DHT22;682;52.502;13.488;2023-11-19T09:54:43;8.90;1.00
1377;DHT22;682;52.502;13.488;2023-11-19T09:57:11;9.20;1.00
1377;DHT22;682;52.502;13.488;2023-11-19T09:59:41;9.70;1.00
1377;DHT22;682;52.502;13.488;2023-11-19T10:02:09;9.90;1.00
1377;DHT22;682;52.502;13.488;2023-11-19T10:04:37;10.20;1.00
1377;DHT22;682;52.502;13.488;2023-11-19T10:07:05;10.50;1.00
1377;DHT22;682;52.502;13.488;2023-11-19T10:09:32;10.50;1.00
1377;DHT22;682;52.502;13.488;2023-11-19T10:12:01;10.50;1.00
1377;DHT22;682;52.502;13.488;2023-11-19T10:14:28;10.40;1.00
1377;DHT22;682;52.502;13.488;2023-11-19T10:17:00;10.30;1.00
1377;DHT22;682;52.502;13.488;2023-11-19T10:19:29;10.20;1.00
1377;DHT22;682;52.502;13.488;2023-11-19T10:22:04;10.10;1.00
1377;DHT22;682;52.502;13.488;2023-11-19T10:24:32;10.10;1.00
1377;DHT22;682;52.502;13.488;2023-11-19T10:27:01;10.40;1.00
1377;DHT22;682;52.502;13.488;2023-11-19T10:29:29;10.70;1.00
1377;DHT22;682;52.502;13.488;2023-11-19T10:31:57;10.70;1.00
1377;DHT22;682;52.502;13.488;2023-11-19T10:34:25;10.70;1.00
1377;DHT22;682;52.502;13.488;2023-11-19T10:36:52;10.50;1.00
1377;DHT22;682;52.502;13.488;2023-11-19T10:39:19;10.40;1.00
1377;DHT22;682;52.502;13.488;2023-11-19T10:41:49;10.60;1.00
1377;DHT22;682;52.502;13.488;2023-11-19T10:47:10;10.80;1.00
1377;DHT22;682;52.502;13.488;2023-11-19T10:49:39;11.80;1.00
1377;DHT22;682;52.502;13.488;2023-11-19T10:52:08;12.20;1.00
1377;DHT22;682;52.502;13.488;2023-11-19T10:54:37;12.00;1.00
1377;DHT22;682;52.502;13.488;2023-11-19T10:57:08;11.80;1.00
1377;DHT22;682;52.502;13.488;2023-11-19T10:59:37;11.70;1.00
1377;DHT22;682;52.502;13.488;2023-11-19T11:02:09;11.70;1.00
1377;DHT22;682;52.502;13.488;2023-11-19T11:04:40;11.70;1.00
1377;DHT22;682;52.502;13.488;2023-11-19T11:07:12;11.80;1.00
1377;DHT22;682;52.502;13.488;2023-11-19T11:09:41;11.80;1.00
1377;DHT22;682;52.502;13.488;2023-11-19T11:12:14;11.90;1.00
1377;DHT22;682;52.502;13.488;2023-11-19T11:14:42;11.80;1.00
1377;DHT22;682;52.502;13.488;2023-11-19T11:17:12;11.70;1.00
1377;DHT22;682;52.502;13.488;2023-11-19T11:19:42;11.70;1.00
1377;DHT22;682;52.502;13.488;2023-11-19T11:22:11;12.20;1.00
1377;DHT22;682;52.502;13.488;2023-11-19T11:28:04;12.70;1.00
1377;DHT22;682;52.502;13.488;2023-11-19T11:30:43;12.90;1.00
1377;DHT22;682;52.502;13.488;2023-11-19T11:33:29;13.20;1.00
1377;DHT22;682;52.502;13.488;2023-11-19T11:36:06;13.10;1.00
1377;DHT22;682;52.502;13.488;2023-11-19T11:38:40;12.80;1.00
1377;DHT22;682;52.502;13.488;2023-11-19T11:41:21;12.60;1.00
1377;DHT22;682;52.502;13.488;2023-11-19T11:43:50;12.70;1.00
1377;DHT22;682;52.502;13.488;2023-11-19T11:46:54;13.50;1.00
1377;DHT22;682;52.502;13.488;2023-11-19T11:49:31;14.20;1.00
1377;DHT22;682;52.502;13.488;2023-11-19T11:52:01;14.60;1.00
1377;DHT22;682;52.502;13.488;2023-11-19T11:54:29;15.00;1.00
1377;DHT22;682;52.502;13.488;2023-11-19T11:57:08;15.30;1.00
1377;DHT22;682;52.502;13.488;2023-11-19T11:59:49;16.00;1.00
1377;DHT22;682;52.502;13.488;2023-11-19T12:02:18;16.40;1.00
1377;DHT22;682;52.502;13.488;2023-11-19T12:04:52;16.20;1.00
1377;DHT22;682;52.502;13.488;2023-11-19T12:07:21;15.60;1.00
1377;DHT22;682;52.502;13.488;2023-11-19T12:09:52;15.00;1.00
1377;DHT22;682;52.502;13.488;2023-11-19T12:12:26;14.40;1.00
1377;DHT22;682;52.502;13.488;2023-11-19T12:15:01;13.90;1.00
1377;DHT22;682;52.502;13.488;2023-11-19T12:17:41;13.70;1.00
1377;DHT22;682;52.502;13.488;2023-11-19T12:20:11;13.40;1.00
1377;DHT22;682;52.502;13.488;2023-11-19T12:22:39;13.30;1.00
1377;DHT22;682;52.502;13.488;2023-11-19T12:25:09;13.10;1.00
1377;DHT22;682;52.502;13.488;2023-11-19T12:27:39;13.10;1.00
1377;DHT22;682;52.502;13.488;2023-11-19T12:30:08;13.10;1.00
1377;DHT22;682;52.502;13.488;2023-11-19T12:32:39;13.10;1.00
1377;DHT22;682;52.502;13.488;2023-11-19T12:35:07;13.10;1.00
1377;DHT22;682;52.502;13.488;2023-11-19T12:37:53;13.10;1.00
1377;DHT22;682;52.502;13.488;2023-11-19T12:40:21;13.00;1.00
1377;DHT22;682;52.502;13.488;2023-11-19T12:42:50;12.80;1.00
1377;DHT22;682;52.502;13.488;2023-11-19T12:45:17;12.70;1.00
1377;DHT22;682;52.502;13.488;2023-11-19T12:47:46;12.60;1.00
1377;DHT22;682;52.502;13.488;2023-11-19T12:50:15;12.60;1.00
1377;DHT22;682;52.502;13.488;2023-11-19T12:52:43;12.50;1.00
1377;DHT22;682;52.502;13.488;2023-11-19T12:55:27;12.40;1.00
1377;DHT22;682;52.502;13.488;2023-11-19T12:57:55;12.20;1.00
1377;DHT22;682;52.502;13.488;2023-11-19T13:00:23;12.10;1.00
1377;DHT22;682;52.502;13.488;2023-11-19T13:02:52;12.20;1.00
1377;DHT22;682;52.502;13.488;2023-11-19T13:05:28;12.30;1.00
1377;DHT22;682;52.502;13.488;2023-11-19T13:08:00;12.30;1.00
1377;DHT22;682;52.502;13.488;2023-11-19T13:10:29;12.10;1.00
1377;DHT22;682;52.502;13.488;2023-11-19T13:13:04;12.10;1.00
1377;DHT22;682;52.502;13.488;2023-11-19T13:15:32;12.00;1.00
1377;DHT22;682;52.502;13.488;2023-11-19T13:17:59;12.10;1.00
1377;DHT22;682;52.502;13.488;2023-11-19T13:20:26;12.50;1.00
1377;DHT22;682;52.502;13.488;2023-11-19T13:22:56;12.50;1.00
1377;DHT22;682;52.502;13.488;2023-11-19T13:25:24;12.60;1.00
1377;DHT22;682;52.502;13.488;2023-11-19T13:27:53;12.70;1.00
1377;DHT22;682;52.502;13.488;2023-11-19T13:30:20;12.70;1.00
1377;DHT22;682;52.502;13.488;2023-11-19T13:32:48;12.70;1.00
1377;DHT22;682;52.502;13.488;2023-11-19T13:35:16;12.70;1.00
1377;DHT22;682;52.502;13.488;2023-11-19T13:37:43;12.70;1.00
1377;DHT22;682;52.502;13.488;2023-11-19T13:40:11;12.60;1.00
1377;DHT22;682;52.502;13.488;2023-11-19T13:42:40;12.70;1.00
1377;DHT22;682;52.502;13.488;2023-11-19T13:45:09;12.70;1.00
1377;DHT22;682;52.502;13.488;2023-11-19T13:47:37;12.70;1.00
1377;DHT22;682;52.502;13.488;2023-11-19T13:50:08;12.80;1.00
1377;DHT22;682;52.502;13.488;2023-11-19T13:52:35;12.90;1.00
1377;DHT22;682;52.502;13.488;2023-11-19T13:55:06;12.90;1.00
1377;DHT22;682;52.502;13.488;2023-11-19T13:57:34;12.90;1.00
1377;DHT22;682;52.502;13.488;2023-11-19T14:00:01;12.80;1.00
1377;DHT22;682;52.502;13.488;2023-11-19T14:02:33;12.80;1.00
1377;DHT22;682;52.502;13.488;2023-11-19T14:05:00;12.70;1.00
1377;DHT22;682;52.502;13.488;2023-11-19T14:07:29;12.70;1.00
1377;DHT22;682;52.502;13.488;2023-11-19T14:09:56;12.60;1.00
1377;DHT22;682;52.502;13.488;2023-11-19T14:12:23;12.60;1.00
1377;DHT22;682;52.502;13.488;2023-11-19T14:14:50;12.60;1.00
1377;DHT22;682;52.502;13.488;2023-11-19T14:17:17;12.60;1.00
1377;DHT22;682;52.502;13.488;2023-11-19T14:19:45;12.60;1.00
1377;DHT22;682;52.502;13.488;2023-11-19T14:22:13;12.50;1.00
1377;DHT22;682;52.502;13.488;2023-11-19T14:24:39;12.60;1.00
1377;DHT22;682;52.502;13.488;2023-11-19T14:27:08;12.60;1.00
1377;DHT22;682;52.502;13.488;2023-11-19T14:29:35;12.60;1.00
1377;DHT22;682;52.502;13.488;2023-11-19T14:32:02;12.60;1.00
1377;DHT22;682;52.502;13.488;2023-11-19T14:34:30;12.60;1.00
1377;DHT22;682;52.502;13.488;2023-11-19T14:36:59;12.50;1.00
1377;DHT22;682;52.502;13.488;2023-11-19T14:39:26;12.50;1.00
1377;DHT22;682;52.502;13.488;2023-11-19T14:41:54;12.40;1.00
1377;DHT22;682;52.502;13.488;2023-11-19T14:44:24;12.40;1.00
1377;DHT22;682;52.502;13.488;2023-11-19T14:46:50;12.40;1.00
1377;DHT22;682;52.502;13.488;2023-11-19T14:49:17;12.30;1.00
1377;DHT22;682;52.502;13.488;2023-11-19T14:51:44;12.30;1.00
1377;DHT22;682;52.502;13.488;2023-11-19T14:54:13;12.30;1.00
1377;DHT22;682;52.502;13.488;2023-11-19T14:56:43;12.20;1.00
1377;DHT22;682;52.502;13.488;2023-11-19T14:59:11;12.10;1.00
1377;DHT22;682;52.502;13.488;2023-11-19T15:01:39;12.10;1.00
1377;DHT22;682;52.502;13.488;2023-11-19T15:04:07;12.10;1.00
1377;DHT22;682;52.502;13.488;2023-11-19T15:06:34;12.10;1.00
1377;DHT22;682;52.502;13.488;2023-11-19T15:09:01;12.10;1.00
1377;DHT22;682;52.502;13.488;2023-11-19T15:11:30;12.20;1.00
1377;DHT22;682;52.502;13.488;2023-11-19T15:13:57;12.20;1.00
1377;DHT22;682;52.502;13.488;2023-11-19T15:16:24;12.10;1.00
1377;DHT22;682;52.502;13.488;2023-11-19T15:18:57;12.20;1.00
1377;DHT22;682;52.502;13.488;2023-11-19T15:21:25;12.20;1.00
1377;DHT22;682;52.502;13.488;2023-11-19T15:23:52;12.10;1.00
1377;DHT22;682;52.502;13.488;2023-11-19T15:26:19;12.10;1.00
1377;DHT22;682;52.502;13.488;2023-11-19T15:28:48;12.10;1.00
1377;DHT22;682;52.502;13.488;2023-11-19T15:31:16;12.00;1.00
1377;DHT22;682;52.502;13.488;2023-11-19T15:33:45;12.00;1.00
1377;DHT22;682;52.502;13.488;2023-11-19T15:36:13;11.90;1.00
1377;DHT22;682;52.502;13.488;2023-11-19T15:38:40;11.80;1.00
1377;DHT22;682;52.502;13.488;2023-11-19T15:41:08;11.70;1.00
1377;DHT22;682;52.502;13.488;2023-11-19T15:43:35;11.70;1.00
1377;DHT22;682;52.502;13.488;2023-11-19T15:46:09;11.80;1.00
1377;DHT22;682;52.502;13.488;2023-11-19T15:48:36;11.70;1.00
1377;DHT22;682;52.502;13.488;2023-11-19T15:51:04;11.70;1.00
1377;DHT22;682;52.502;13.488;2023-11-19T15:53:33;11.80;1.00
1377;DHT22;682;52.502;13.488;2023-11-19T15:56:00;11.80;1.00
1377;DHT22;682;52.502;13.488;2023-11-19T15:58:30;11.80;1.00
1377;DHT22;682;52.502;13.488;2023-11-19T16:00:58;11.90;1.00
1377;DHT22;682;52.502;13.488;2023-11-19T16:03:27;11.90;1.00
1377;DHT22;682;52.502;13.488;2023-11-19T16:05:55;11.90;1.00
1377;DHT22;682;52.502;13.488;2023-11-19T16:08:22;11.90;1.00
1377;DHT22;682;52.502;13.488;2023-11-19T16:10:49;11.90;1.00
1377;DHT22;682;52.502;13.488;2023-11-19T16:13:18;11.80;1.00
1377;DHT22;682;52.502;13.488;2023-11-19T16:15:47;11.80;1.00
1377;DHT22;682;52.502;13.488;2023-11-19T16:18:14;11.80;1.00
1377;DHT22;682;52.502;13.488;2023-11-19T16:20:42;11.80;1.00
1377;DHT22;682;52.502;13.488;2023-11-19T16:23:10;11.90;1.00
1377;DHT22;682;52.502;13.488;2023-11-19T16:25:38;11.80;1.00
1377;DHT22;682;52.502;13.488;2023-11-19T16:28:07;11.80;1.00
1377;DHT22;682;52.502;13.488;2023-11-19T16:30:34;11.70;1.00
1377;DHT22;682;52.502;13.488;2023-11-19T16:33:01;11.70;1.00
1377;DHT22;682;52.502;13.488;2023-11-19T16:35:28;11.80;1.00
1377;DHT22;682;52.502;13.488;2023-11-19T16:37:57;11.80;1.00
1377;DHT22;682;52.502;13.488;2023-11-19T16:40:24;11.70;1.00